Time,TemperatureF,DewpointF,PressureIn,WindDirection,WindDirectionDegrees,WindSpeedMPH,WindSpeedGustMPH,Humidity,HourlyPrecipIn,Conditions,Clouds,dailyrainin,SoftwareType,DateUTC
2013-03-09 05:33:00,50.7,47.9,29.69,East,89,10.0,10.0,90,0.00,,,0.00,Wunderground v.1.15,2013-03-09 11:33:00,
2013-03-09 05:38:00,50.7,47.9,29.69,East,91,8.0,11.0,90,0.00,,,0.00,Wunderground v.1.15,2013-03-09 11:38:00,
2013-03-09 05:43:00,50.8,48.0,29.69,ESE,114,9.0,11.0,90,0.00,,,0.00,Wunderground v.1.15,2013-03-09 11:43:00,
2013-03-09 05:49:00,51.1,48.6,29.67,ESE,103,8.0,11.0,91,0.00,,,0.00,Wunderground v.1.15,2013-03-09 11:49:00,
2013-03-09 05:55:00,51.4,48.9,29.67,East,101,9.0,10.0,91,0.00,,,0.00,Wunderground v.1.15,2013-03-09 11:55:00,
2013-03-09 06:00:00,51.6,49.1,29.66,East,84,9.0,9.0,91,0.00,,,0.00,Wunderground v.1.15,2013-03-09 12:00:00,
2013-03-09 06:05:00,51.7,49.2,29.67,East,96,8.0,10.0,91,0.00,,,0.00,Wunderground v.1.15,2013-03-09 12:05:00,
2013-03-09 06:11:00,51.7,49.2,29.66,East,95,9.0,11.0,91,0.00,,,0.00,Wunderground v.1.15,2013-03-09 12:11:00,
2013-03-09 06:16:00,51.8,49.3,29.67,East,88,9.0,11.0,91,0.00,,,0.00,Wunderground v.1.15,2013-03-09 12:16:00,
2013-03-09 06:22:00,51.7,49.2,29.67,East,83,9.0,10.0,91,0.00,,,0.00,Wunderground v.1.15,2013-03-09 12:22:00,
2013-03-09 06:27:00,51.5,48.7,29.66,ENE,76,9.0,11.0,90,0.00,,,0.00,Wunderground v.1.15,2013-03-09 12:27:00,
2013-03-09 06:33:00,51.5,48.7,29.66,East,86,10.0,13.0,90,0.00,,,0.00,Wunderground v.1.15,2013-03-09 12:33:00,
2013-03-09 06:38:00,51.5,48.7,29.66,East,92,11.0,14.0,90,0.00,,,0.00,Wunderground v.1.15,2013-03-09 12:38:00,
2013-03-09 06:44:00,51.4,48.6,29.66,ESE,104,11.0,13.0,90,0.00,,,0.00,Wunderground v.1.15,2013-03-09 12:44:00,
2013-03-09 06:49:00,51.4,48.6,29.66,East,98,11.0,13.0,90,0.00,,,0.00,Wunderground v.1.15,2013-03-09 12:49:00,
2013-03-09 06:55:00,51.4,48.6,29.66,East,98,11.0,11.0,90,0.00,,,0.00,Wunderground v.1.15,2013-03-09 12:55:00,
2013-03-09 07:00:00,51.4,48.6,29.66,ESE,107,11.0,11.0,90,0.00,,,0.00,Wunderground v.1.15,2013-03-09 13:00:00,
2013-03-09 07:06:00,51.5,48.7,29.66,ESE,107,11.0,13.0,90,0.00,,,0.00,Wunderground v.1.15,2013-03-09 13:06:00,
2013-03-09 07:11:00,51.5,48.7,29.66,ESE,109,11.0,11.0,90,0.00,,,0.00,Wunderground v.1.15,2013-03-09 13:11:00,
2013-03-09 07:16:00,51.4,48.6,29.66,ESE,102,10.0,12.0,90,0.00,,,0.00,Wunderground v.1.15,2013-03-09 13:16:00,
2013-03-09 07:22:00,51.4,48.6,29.65,ESE,110,10.0,14.0,90,0.00,,,0.00,Wunderground v.1.15,2013-03-09 13:22:00,
2013-03-09 07:27:00,51.5,48.7,29.65,ESE,105,11.0,14.0,90,0.00,,,0.00,Wunderground v.1.15,2013-03-09 13:27:00,
2013-03-09 07:33:00,51.5,48.7,29.65,East,88,11.0,12.0,90,0.00,,,0.00,Wunderground v.1.15,2013-03-09 13:33:00,
2013-03-09 07:38:00,51.5,48.7,29.65,East,98,10.0,14.0,90,0.00,,,0.00,Wunderground v.1.15,2013-03-09 13:38:00,
2013-03-09 07:43:00,51.5,48.7,29.65,East,87,10.0,13.0,90,0.00,,,0.00,Wunderground v.1.15,2013-03-09 13:43:00,
2013-03-09 07:49:00,51.4,48.6,29.65,ESE,107,10.0,15.0,90,0.00,,,0.00,Wunderground v.1.15,2013-03-09 13:49:00,
2013-03-09 07:54:00,51.4,48.6,29.65,East,88,9.0,10.0,90,0.00,,,0.00,Wunderground v.1.15,2013-03-09 13:54:00,
2013-03-09 08:00:00,51.3,48.5,29.65,East,90,8.0,8.0,90,0.00,,,0.00,Wunderground v.1.15,2013-03-09 14:00:00,
2013-03-09 08:05:00,51.3,48.5,29.65,East,90,8.0,11.0,90,0.00,,,0.00,Wunderground v.1.15,2013-03-09 14:05:00,
2013-03-09 08:11:00,51.4,48.6,29.65,ESE,118,8.0,13.0,90,0.00,,,0.00,Wunderground v.1.15,2013-03-09 14:11:00,
2013-03-09 08:16:00,51.5,48.7,29.65,ESE,105,8.0,13.0,90,0.00,,,0.00,Wunderground v.1.15,2013-03-09 14:16:00,
2013-03-09 08:22:00,51.5,48.7,29.65,ESE,105,7.0,10.0,90,0.00,,,0.00,Wunderground v.1.15,2013-03-09 14:22:00,
2013-03-09 08:27:00,51.7,48.9,29.65,ESE,108,9.0,10.0,90,0.00,,,0.00,Wunderground v.1.15,2013-03-09 14:27:00,
2013-03-09 08:32:00,51.8,49.3,29.65,East,96,10.0,10.0,91,0.00,,,0.00,Wunderground v.1.15,2013-03-09 14:32:00,
2013-03-09 08:38:00,51.9,49.4,29.65,ESE,111,8.0,10.0,91,0.00,,,0.00,Wunderground v.1.15,2013-03-09 14:38:00,
2013-03-09 08:44:00,52.0,49.2,29.64,ESE,107,8.0,9.0,90,0.00,,,0.00,Wunderground v.1.15,2013-03-09 14:44:00,
2013-03-09 08:50:00,52.1,49.3,29.64,ESE,111,9.0,9.0,90,0.00,,,0.00,Wunderground v.1.15,2013-03-09 14:50:00,
2013-03-09 08:55:00,52.2,49.4,29.64,ESE,105,9.0,9.0,90,0.00,,,0.00,Wunderground v.1.15,2013-03-09 14:55:00,
2013-03-09 09:01:00,52.4,49.6,29.64,ESE,103,8.0,9.0,90,0.00,,,0.00,Wunderground v.1.15,2013-03-09 15:01:00,
2013-03-09 09:06:00,52.5,49.7,29.64,East,101,8.0,10.0,90,0.00,,,0.00,Wunderground v.1.15,2013-03-09 15:06:00,
2013-03-09 09:11:00,52.6,49.8,29.64,ESE,113,9.0,10.0,90,0.00,,,0.00,Wunderground v.1.15,2013-03-09 15:11:00,
2013-03-09 09:17:00,52.6,49.8,29.64,ESE,113,9.0,11.0,90,0.00,,,0.00,Wunderground v.1.15,2013-03-09 15:17:00,
2013-03-09 09:22:00,52.8,49.9,29.63,SE,126,10.0,12.0,90,0.00,,,0.00,Wunderground v.1.15,2013-03-09 15:22:00,
2013-03-09 09:28:00,53.1,50.2,29.63,SE,132,9.0,14.0,90,0.00,,,0.00,Wunderground v.1.15,2013-03-09 15:28:00,
2013-03-09 09:33:00,53.4,50.2,29.63,SSE,150,9.0,10.0,89,0.00,,,0.00,Wunderground v.1.15,2013-03-09 15:33:00,
2013-03-09 09:39:00,53.7,50.2,29.63,SE,144,11.0,15.0,88,0.00,,,0.00,Wunderground v.1.15,2013-03-09 15:39:00,
2013-03-09 09:44:00,54.1,50.3,29.63,SSE,156,11.0,12.0,87,0.00,,,0.00,Wunderground v.1.15,2013-03-09 15:44:00,
2013-03-09 09:50:00,52.5,46.8,29.64,WSW,255,10.0,17.0,81,0.00,,,0.00,Wunderground v.1.15,2013-03-09 15:50:00,
2013-03-09 09:55:00,47.8,42.6,29.64,West,277,12.0,17.0,82,0.00,,,0.00,Wunderground v.1.15,2013-03-09 15:55:00,
2013-03-09 10:01:00,44.4,39.6,29.65,NW,304,14.0,17.0,83,0.00,,,0.00,Wunderground v.1.15,2013-03-09 16:01:00,
2013-03-09 10:06:00,41.4,37.2,29.65,NW,322,16.0,20.0,85,0.00,,,0.00,Wunderground v.1.15,2013-03-09 16:06:00,
2013-03-09 10:11:00,40.1,36.2,29.65,NW,319,17.0,18.0,86,0.00,,,0.00,Wunderground v.1.15,2013-03-09 16:11:00,
2013-03-09 10:17:00,38.8,35.3,29.65,NW,317,17.0,25.0,87,0.00,,,0.00,Wunderground v.1.15,2013-03-09 16:17:00,
2013-03-09 10:22:00,38.3,34.8,29.65,NNW,333,19.0,22.0,87,0.00,,,0.00,Wunderground v.1.15,2013-03-09 16:22:00,
2013-03-09 10:28:00,38.0,34.5,29.65,NNW,342,18.0,23.0,87,0.00,,,0.00,Wunderground v.1.15,2013-03-09 16:28:00,
2013-03-09 10:33:00,37.7,34.2,29.66,NNW,333,18.0,29.0,87,0.00,,,0.00,Wunderground v.1.15,2013-03-09 16:33:00,
2013-03-09 10:39:00,37.7,34.2,29.66,NNW,337,20.0,29.0,87,0.00,,,0.00,Wunderground v.1.15,2013-03-09 16:39:00,
2013-03-09 10:44:00,37.7,34.2,29.66,NNW,332,21.0,27.0,87,0.00,,,0.00,Wunderground v.1.15,2013-03-09 16:44:00,
2013-03-09 10:50:00,37.5,34.0,29.66,NNW,327,21.0,27.0,87,0.00,,,0.00,Wunderground v.1.15,2013-03-09 16:50:00,
2013-03-09 10:55:00,37.4,33.9,29.66,NNW,330,21.0,29.0,87,0.00,,,0.00,Wunderground v.1.15,2013-03-09 16:55:00,
2013-03-09 11:01:00,37.3,33.8,29.67,NNW,342,22.0,23.0,87,0.00,,,0.00,Wunderground v.1.15,2013-03-09 17:01:00,
2013-03-09 11:06:00,37.2,33.7,29.67,NNW,331,21.0,29.0,87,0.00,,,0.00,Wunderground v.1.15,2013-03-09 17:06:00,
2013-03-09 11:12:00,37.0,33.5,29.67,NW,323,21.0,28.0,87,0.00,,,0.00,Wunderground v.1.15,2013-03-09 17:12:00,
2013-03-09 11:17:00,36.9,33.4,29.67,NNW,333,23.0,31.0,87,0.00,,,0.00,Wunderground v.1.15,2013-03-09 17:17:00,
2013-03-09 11:23:00,36.5,32.7,29.67,NW,321,25.0,29.0,86,0.00,,,0.00,Wunderground v.1.15,2013-03-09 17:23:00,
2013-03-09 11:28:00,36.6,32.8,29.67,NW,319,24.0,31.0,86,0.00,,,0.00,Wunderground v.1.15,2013-03-09 17:28:00,
2013-03-09 11:34:00,36.4,32.6,29.67,NNW,327,24.0,29.0,86,0.00,,,0.00,Wunderground v.1.15,2013-03-09 17:34:00,
2013-03-09 11:39:00,36.3,32.5,29.67,NNW,336,25.0,34.0,86,0.00,,,0.00,Wunderground v.1.15,2013-03-09 17:39:00,
2013-03-09 11:45:00,36.3,32.5,29.68,NNW,338,24.0,33.0,86,0.00,,,0.00,Wunderground v.1.15,2013-03-09 17:45:00,
2013-03-09 11:50:00,36.2,32.4,29.68,North,355,24.0,24.0,86,0.00,,,0.00,Wunderground v.1.15,2013-03-09 17:50:00,
2013-03-09 11:56:00,36.1,32.3,29.68,NNW,338,25.0,28.0,86,0.00,,,0.00,Wunderground v.1.15,2013-03-09 17:56:00,
2013-03-09 12:01:00,35.9,31.8,29.68,North,355,25.0,28.0,85,0.00,,,0.00,Wunderground v.1.15,2013-03-09 18:01:00,
2013-03-09 12:06:00,35.5,31.4,29.69,NNW,342,25.0,32.0,85,0.00,,,0.00,Wunderground v.1.15,2013-03-09 18:06:00,
2013-03-09 12:12:00,35.2,31.1,29.69,NNW,336,26.0,29.0,85,0.00,,,0.00,Wunderground v.1.15,2013-03-09 18:12:00,
2013-03-09 12:17:00,35.3,31.2,29.69,NNW,327,24.0,29.0,85,0.00,,,0.00,Wunderground v.1.15,2013-03-09 18:17:00,
2013-03-09 12:22:00,35.3,31.2,29.69,NNW,328,23.0,34.0,85,0.00,,,0.00,Wunderground v.1.15,2013-03-09 18:22:00,
2013-03-09 12:28:00,35.3,30.9,29.69,NW,326,26.0,35.0,84,0.00,,,0.00,Wunderground v.1.15,2013-03-09 18:28:00,
2013-03-09 12:33:00,35.5,31.4,29.68,NNW,343,26.0,28.0,85,0.00,,,0.00,Wunderground v.1.15,2013-03-09 18:33:00,
2013-03-09 12:38:00,35.5,31.1,29.69,NNW,338,24.0,33.0,84,0.00,,,0.00,Wunderground v.1.15,2013-03-09 18:38:00,
2013-03-09 12:44:00,35.5,31.1,29.69,NNW,344,22.0,24.0,84,0.00,,,0.00,Wunderground v.1.15,2013-03-09 18:44:00,
2013-03-09 12:49:00,35.5,31.1,29.69,NNW,342,20.0,28.0,84,0.00,,,0.00,Wunderground v.1.15,2013-03-09 18:49:00,
2013-03-09 12:54:00,35.3,30.9,29.70,NW,315,20.0,28.0,84,0.00,,,0.00,Wunderground v.1.15,2013-03-09 18:54:00,
2013-03-09 13:00:00,35.3,30.9,29.70,NNW,330,21.0,21.0,84,0.00,,,0.00,Wunderground v.1.15,2013-03-09 19:00:00,
2013-03-09 13:06:00,35.1,30.5,29.70,NW,314,20.0,26.0,83,0.00,,,0.00,Wunderground v.1.15,2013-03-09 19:06:00,
2013-03-09 13:11:00,34.4,30.1,29.71,NW,311,20.0,29.0,84,0.00,,,0.00,Wunderground v.1.15,2013-03-09 19:11:00,
2013-03-09 13:17:00,34.4,30.1,29.71,NNW,327,22.0,29.0,84,0.00,,,0.00,Wunderground v.1.15,2013-03-09 19:17:00,
2013-03-09 13:23:00,34.4,30.1,29.71,NNW,327,27.0,27.0,84,0.00,,,0.00,Wunderground v.1.15,2013-03-09 19:23:00,
2013-03-09 13:28:00,33.6,29.0,29.71,NW,325,23.0,27.0,83,0.00,,,0.00,Wunderground v.1.15,2013-03-09 19:28:00,
2013-03-09 13:34:00,33.5,28.9,29.72,NW,315,21.0,21.0,83,0.00,,,0.00,Wunderground v.1.15,2013-03-09 19:34:00,
2013-03-09 13:39:00,33.4,28.8,29.72,NW,326,20.0,25.0,83,0.00,,,0.00,Wunderground v.1.15,2013-03-09 19:39:00,
2013-03-09 13:44:00,33.3,28.7,29.71,NW,313,17.0,26.0,83,0.00,,,0.00,Wunderground v.1.15,2013-03-09 19:44:00,
2013-03-09 13:49:00,33.0,28.4,29.71,NW,317,18.0,26.0,83,0.00,,,0.00,Wunderground v.1.15,2013-03-09 19:49:00,
2013-03-09 13:55:00,32.8,28.2,29.72,NW,325,21.0,28.0,83,0.00,,,0.00,Wunderground v.1.15,2013-03-09 19:55:00,
2013-03-09 14:00:00,32.8,27.9,29.71,NNW,334,19.0,26.0,82,0.00,,,0.00,Wunderground v.1.15,2013-03-09 20:00:00,
2013-03-09 14:06:00,32.6,28.0,29.72,NW,311,19.0,26.0,83,0.00,,,0.00,Wunderground v.1.15,2013-03-09 20:06:00,
2013-03-09 14:12:00,32.3,27.4,29.72,NNW,331,18.0,22.0,82,0.00,,,0.00,Wunderground v.1.15,2013-03-09 20:12:00,
2013-03-09 14:17:00,32.0,27.1,29.72,NW,324,21.0,25.0,82,0.00,,,0.00,Wunderground v.1.15,2013-03-09 20:17:00,
2013-03-09 14:23:00,31.8,26.9,29.72,NW,321,24.0,24.0,82,0.00,,,0.00,Wunderground v.1.15,2013-03-09 20:23:00,
2013-03-09 14:28:00,31.9,27.0,29.73,NW,321,23.0,25.0,82,0.00,,,0.00,Wunderground v.1.15,2013-03-09 20:28:00,
2013-03-09 14:33:00,32.0,27.1,29.73,NW,321,21.0,22.0,82,0.00,,,0.00,Wunderground v.1.15,2013-03-09 20:33:00,
2013-03-09 14:38:00,32.0,27.1,29.74,NW,321,16.0,22.0,82,0.00,,,0.00,Wunderground v.1.15,2013-03-09 20:38:00,
2013-03-09 14:44:00,31.6,26.7,29.74,NW,314,18.0,28.0,82,0.00,,,0.00,Wunderground v.1.15,2013-03-09 20:44:00,
2013-03-09 14:49:00,31.7,26.8,29.74,NW,306,23.0,28.0,82,0.00,,,0.00,Wunderground v.1.15,2013-03-09 20:49:00,
2013-03-09 14:55:00,31.1,26.2,29.75,NW,326,22.0,27.0,82,0.00,,,0.00,Wunderground v.1.15,2013-03-09 20:55:00,
2013-03-09 15:00:00,31.1,26.2,29.76,NNW,328,24.0,24.0,82,0.00,,,0.00,Wunderground v.1.15,2013-03-09 21:00:00,
2013-03-09 15:06:00,31.4,26.5,29.76,NW,306,20.0,24.0,82,0.00,,,0.00,Wunderground v.1.15,2013-03-09 21:06:00,
2013-03-09 15:11:00,31.1,26.2,29.76,NW,323,18.0,20.0,82,0.00,,,0.00,Wunderground v.1.15,2013-03-09 21:11:00,
2013-03-09 15:17:00,31.1,26.2,29.77,NW,305,20.0,25.0,82,0.00,,,0.00,Wunderground v.1.15,2013-03-09 21:17:00,
2013-03-09 15:23:00,31.1,26.2,29.77,NNW,329,22.0,27.0,82,0.00,,,0.00,Wunderground v.1.15,2013-03-09 21:23:00,
2013-03-09 15:28:00,31.1,26.2,29.77,NW,325,23.0,27.0,82,0.00,,,0.00,Wunderground v.1.15,2013-03-09 21:28:00,
2013-03-09 15:34:00,31.3,26.1,29.77,NNW,337,23.0,26.0,81,0.00,,,0.00,Wunderground v.1.15,2013-03-09 21:34:00,
2013-03-09 15:40:00,31.4,26.2,29.77,NNW,327,23.0,23.0,81,0.00,,,0.00,Wunderground v.1.15,2013-03-09 21:40:00,
2013-03-09 15:45:00,31.4,26.2,29.77,NNW,333,22.0,24.0,81,0.00,,,0.00,Wunderground v.1.15,2013-03-09 21:45:00,
2013-03-09 15:51:00,31.3,26.4,29.78,NW,306,19.0,21.0,82,0.00,,,0.00,Wunderground v.1.15,2013-03-09 21:51:00,
2013-03-09 15:56:00,30.6,25.8,29.78,NW,304,19.0,24.0,82,0.00,,,0.00,Wunderground v.1.15,2013-03-09 21:56:00,
2013-03-09 16:02:00,30.3,25.8,29.78,NW,319,21.0,29.0,83,0.00,,,0.00,Wunderground v.1.15,2013-03-09 22:02:00,
2013-03-09 16:07:00,30.3,25.8,29.78,NW,317,21.0,29.0,83,0.00,,,0.00,Wunderground v.1.15,2013-03-09 22:07:00,
2013-03-09 16:13:00,30.4,25.6,29.79,NW,317,19.0,24.0,82,0.00,,,0.00,Wunderground v.1.15,2013-03-09 22:13:00,
2013-03-09 16:19:00,30.5,25.7,29.79,WNW,299,17.0,24.0,82,0.00,,,0.00,Wunderground v.1.15,2013-03-09 22:19:00,
2013-03-09 16:24:00,30.3,25.5,29.79,NNW,328,16.0,26.0,82,0.00,,,0.00,Wunderground v.1.15,2013-03-09 22:24:00,
2013-03-09 16:29:00,30.1,25.3,29.79,NW,313,19.0,27.0,82,0.00,,,0.00,Wunderground v.1.15,2013-03-09 22:29:00,
2013-03-09 16:35:00,30.0,25.5,29.79,NW,321,19.0,25.0,83,0.00,,,0.00,Wunderground v.1.15,2013-03-09 22:35:00,
2013-03-09 16:40:00,30.1,25.3,29.79,NW,318,21.0,21.0,82,0.00,,,0.00,Wunderground v.1.15,2013-03-09 22:40:00,
2013-03-09 16:46:00,29.9,25.1,29.79,NW,311,19.0,26.0,82,0.00,,,0.00,Wunderground v.1.15,2013-03-09 22:46:00,
2013-03-09 16:51:00,30.0,25.2,29.80,NW,319,21.0,23.0,82,0.00,,,0.00,Wunderground v.1.15,2013-03-09 22:51:00,
2013-03-09 16:57:00,30.1,25.3,29.80,NW,319,22.0,24.0,82,0.00,,,0.00,Wunderground v.1.15,2013-03-09 22:57:00,
2013-03-09 17:02:00,30.1,25.3,29.81,NW,326,21.0,25.0,82,0.00,,,0.00,Wunderground v.1.15,2013-03-09 23:02:00,
2013-03-09 17:07:00,30.0,24.9,29.81,NW,320,21.0,29.0,81,0.00,,,0.00,Wunderground v.1.15,2013-03-09 23:07:00,
2013-03-09 17:13:00,30.1,25.0,29.81,NW,312,24.0,31.0,81,0.00,,,0.00,Wunderground v.1.15,2013-03-09 23:13:00,
2013-03-09 17:18:00,30.1,25.0,29.81,NW,320,23.0,31.0,81,0.00,,,0.00,Wunderground v.1.15,2013-03-09 23:18:00,
2013-03-09 17:24:00,30.2,25.1,29.82,NW,324,24.0,28.0,81,0.00,,,0.00,Wunderground v.1.15,2013-03-09 23:24:00,
2013-03-09 17:29:00,30.3,25.2,29.83,NW,316,23.0,28.0,81,0.00,,,0.00,Wunderground v.1.15,2013-03-09 23:29:00,
2013-03-09 17:35:00,30.3,25.2,29.83,NW,326,20.0,23.0,81,0.00,,,0.00,Wunderground v.1.15,2013-03-09 23:35:00,
2013-03-09 17:40:00,30.4,25.3,29.83,NW,323,20.0,22.0,81,0.00,,,0.00,Wunderground v.1.15,2013-03-09 23:40:00,
2013-03-09 17:46:00,30.5,25.4,29.84,NW,326,20.0,27.0,81,0.00,,,0.00,Wunderground v.1.15,2013-03-09 23:46:00,
2013-03-09 17:52:00,30.5,25.4,29.84,NNW,340,16.0,18.0,81,0.00,,,0.00,Wunderground v.1.15,2013-03-09 23:52:00,
2013-03-09 17:57:00,30.6,25.2,29.85,NW,313,18.0,29.0,80,0.00,,,0.00,Wunderground v.1.15,2013-03-09 23:57:00,
2013-03-09 18:03:00,30.7,25.3,29.85,NW,309,19.0,20.0,80,0.00,,,0.00,Wunderground v.1.15,2013-03-10 00:03:00,
2013-03-09 18:09:00,30.7,25.0,29.86,NNW,338,22.0,31.0,79,0.00,,,0.00,Wunderground v.1.15,2013-03-10 00:09:00,
2013-03-09 18:15:00,30.7,25.0,29.86,NW,322,23.0,30.0,79,0.00,,,0.00,Wunderground v.1.15,2013-03-10 00:15:00,
2013-03-09 18:20:00,30.6,24.9,29.86,NNW,332,22.0,22.0,79,0.00,,,0.00,Wunderground v.1.15,2013-03-10 00:20:00,
2013-03-09 18:25:00,30.6,24.9,29.86,NNW,335,25.0,27.0,79,0.00,,,0.00,Wunderground v.1.15,2013-03-10 00:25:00,
2013-03-09 18:31:00,30.7,25.0,29.87,NNW,329,24.0,25.0,79,0.00,,,0.00,Wunderground v.1.15,2013-03-10 00:31:00,
2013-03-09 18:36:00,30.7,24.7,29.88,NNW,342,22.0,33.0,78,0.00,,,0.00,Wunderground v.1.15,2013-03-10 00:36:00,
2013-03-09 18:42:00,30.7,25.0,29.88,NW,323,22.0,35.0,79,0.00,,,0.00,Wunderground v.1.15,2013-03-10 00:42:00,
2013-03-09 18:47:00,30.8,25.1,29.88,NW,308,22.0,35.0,79,0.00,,,0.00,Wunderground v.1.15,2013-03-10 00:47:00,
2013-03-09 18:53:00,30.8,25.1,29.89,NW,306,19.0,26.0,79,0.00,,,0.00,Wunderground v.1.15,2013-03-10 00:53:00,
2013-03-09 18:59:00,30.9,25.2,29.89,NNW,335,20.0,26.0,79,0.00,,,0.00,Wunderground v.1.15,2013-03-10 00:59:00,
2013-03-09 19:04:00,31.0,25.6,29.89,NW,317,20.0,25.0,80,0.00,,,0.00,Wunderground v.1.15,2013-03-10 01:04:00,
2013-03-09 19:10:00,31.1,25.3,29.90,NNW,327,21.0,28.0,79,0.00,,,0.00,Wunderground v.1.15,2013-03-10 01:10:00,
2013-03-09 19:16:00,31.1,25.3,29.90,NNW,338,22.0,28.0,79,0.00,,,0.00,Wunderground v.1.15,2013-03-10 01:16:00,
2013-03-09 19:22:00,31.1,25.3,29.90,NW,325,22.0,27.0,79,0.00,,,0.00,Wunderground v.1.15,2013-03-10 01:22:00,
2013-03-09 19:27:00,31.1,25.7,29.90,NNW,327,25.0,33.0,80,0.00,,,0.00,Wunderground v.1.15,2013-03-10 01:27:00,
2013-03-09 19:32:00,31.0,25.6,29.90,North,349,25.0,28.0,80,0.00,,,0.00,Wunderground v.1.15,2013-03-10 01:32:00,
2013-03-09 19:38:00,31.0,25.6,29.90,NNW,327,23.0,31.0,80,0.00,,,0.00,Wunderground v.1.15,2013-03-10 01:38:00,
2013-03-09 19:43:00,31.0,25.6,29.90,NNW,341,22.0,31.0,80,0.00,,,0.00,Wunderground v.1.15,2013-03-10 01:43:00,
2013-03-09 19:49:00,31.2,25.7,29.91,NW,325,24.0,33.0,80,0.00,,,0.00,Wunderground v.1.15,2013-03-10 01:49:00,
2013-03-09 19:54:00,31.3,25.8,29.91,NW,322,21.0,28.0,80,0.00,,,0.00,Wunderground v.1.15,2013-03-10 01:54:00,
2013-03-09 20:00:00,31.4,25.6,29.92,NNW,340,23.0,24.0,79,0.00,,,0.00,Wunderground v.1.15,2013-03-10 02:00:00,
2013-03-09 20:05:00,31.5,25.7,29.92,NW,313,27.0,30.0,79,0.00,,,0.00,Wunderground v.1.15,2013-03-10 02:05:00,
2013-03-09 20:11:00,31.8,25.7,29.93,NNW,340,28.0,28.0,78,0.00,,,0.00,Wunderground v.1.15,2013-03-10 02:11:00,
2013-03-09 20:16:00,31.8,25.7,29.93,North,355,27.0,31.0,78,0.00,,,0.00,Wunderground v.1.15,2013-03-10 02:16:00,
2013-03-09 20:22:00,31.9,25.5,29.93,NNW,331,26.0,32.0,77,0.00,,,0.00,Wunderground v.1.15,2013-03-10 02:22:00,
2013-03-09 20:27:00,32.0,25.6,29.93,NNW,342,28.0,32.0,77,0.00,,,0.00,Wunderground v.1.15,2013-03-10 02:27:00,
2013-03-09 20:33:00,32.0,25.3,29.93,NNW,328,30.0,39.0,76,0.00,,,0.00,Wunderground v.1.15,2013-03-10 02:33:00,
2013-03-09 20:38:00,32.0,25.6,29.93,NNW,336,31.0,39.0,77,0.00,,,0.00,Wunderground v.1.15,2013-03-10 02:38:00,
2013-03-09 20:44:00,31.9,25.5,29.93,NNW,331,31.0,41.0,77,0.00,,,0.00,Wunderground v.1.15,2013-03-10 02:44:00,
2013-03-09 20:49:00,31.8,25.4,29.93,NNW,333,32.0,41.0,77,0.00,,,0.00,Wunderground v.1.15,2013-03-10 02:49:00,
2013-03-09 20:55:00,31.7,25.3,29.93,NW,304,29.0,42.0,77,0.00,,,0.00,Wunderground v.1.15,2013-03-10 02:55:00,
2013-03-09 21:00:00,31.6,25.5,29.93,NW,319,30.0,30.0,78,0.00,,,0.00,Wunderground v.1.15,2013-03-10 03:00:00,
2013-03-09 21:06:00,31.6,25.5,29.94,NNW,337,30.0,41.0,78,0.00,,,0.00,Wunderground v.1.15,2013-03-10 03:06:00,
2013-03-09 21:11:00,31.5,25.4,29.95,NNW,337,29.0,30.0,78,0.00,,,0.00,Wunderground v.1.15,2013-03-10 03:11:00,
2013-03-09 21:17:00,31.3,25.5,29.95,NNW,331,26.0,32.0,79,0.00,,,0.00,Wunderground v.1.15,2013-03-10 03:17:00,
2013-03-09 21:22:00,31.1,25.7,29.96,North,360,25.0,28.0,80,0.00,,,0.00,Wunderground v.1.15,2013-03-10 03:22:00,
2013-03-09 21:28:00,31.1,25.7,29.96,NW,325,23.0,37.0,80,0.00,,,0.00,Wunderground v.1.15,2013-03-10 03:28:00,
2013-03-09 21:34:00,30.9,25.5,29.96,NW,309,24.0,30.0,80,0.00,,,0.00,Wunderground v.1.15,2013-03-10 03:34:00,
2013-03-09 21:39:00,30.8,25.7,29.96,NW,325,25.0,33.0,81,0.00,,,0.00,Wunderground v.1.15,2013-03-10 03:39:00,
2013-03-09 21:44:00,30.6,25.8,29.96,NW,319,25.0,30.0,82,0.00,,,0.00,Wunderground v.1.15,2013-03-10 03:44:00,
2013-03-09 21:49:00,30.4,25.6,29.97,NNW,338,24.0,33.0,82,0.00,,,0.00,Wunderground v.1.15,2013-03-10 03:49:00,
2013-03-09 21:55:00,30.2,25.7,29.97,WNW,297,23.0,33.0,83,0.00,,,0.00,Wunderground v.1.15,2013-03-10 03:55:00,
2013-03-09 22:00:00,30.1,25.8,29.98,NNW,340,24.0,30.0,84,0.00,,,0.00,Wunderground v.1.15,2013-03-10 04:00:00,
2013-03-09 22:06:00,30.1,25.8,29.98,NW,315,24.0,31.0,84,0.00,,,0.00,Wunderground v.1.15,2013-03-10 04:06:00,
2013-03-09 22:11:00,30.1,25.8,29.99,NW,321,24.0,27.0,84,0.00,,,0.00,Wunderground v.1.15,2013-03-10 04:11:00,
2013-03-09 22:17:00,29.9,25.9,30.00,NW,321,23.0,27.0,85,0.00,,,0.00,Wunderground v.1.15,2013-03-10 04:17:00,
2013-03-09 22:22:00,29.9,25.9,30.00,NW,316,20.0,32.0,85,0.00,,,0.00,Wunderground v.1.15,2013-03-10 04:22:00,
2013-03-09 22:28:00,29.8,25.8,30.00,NW,315,23.0,32.0,85,0.00,,,0.00,Wunderground v.1.15,2013-03-10 04:28:00,
2013-03-09 22:33:00,29.7,26.0,30.00,NW,321,23.0,23.0,86,0.00,,,0.00,Wunderground v.1.15,2013-03-10 04:33:00,
2013-03-09 22:39:00,29.7,26.0,30.01,NW,321,21.0,24.0,86,0.00,,,0.00,Wunderground v.1.15,2013-03-10 04:39:00,
2013-03-09 22:44:00,29.7,26.0,30.01,NW,313,22.0,26.0,86,0.00,,,0.00,Wunderground v.1.15,2013-03-10 04:44:00,
2013-03-09 22:50:00,29.7,26.3,30.02,NNW,329,20.0,20.0,87,0.00,,,0.00,Wunderground v.1.15,2013-03-10 04:50:00,
2013-03-09 22:55:00,29.7,26.3,30.02,NW,316,19.0,26.0,87,0.00,,,0.00,Wunderground v.1.15,2013-03-10 04:55:00,
2013-03-09 23:00:00,29.8,26.4,30.02,NW,315,20.0,20.0,87,0.00,,,0.00,Wunderground v.1.15,2013-03-10 05:00:00,
2013-03-09 23:01:00,29.8,26.4,30.03,NW,315,20.0,25.0,87,0.00,,,0.00,Wunderground v.1.15,2013-03-10 05:01:00,
2013-03-09 23:02:00,29.8,26.4,30.02,NNW,337,21.0,25.0,87,0.00,,,0.00,Wunderground v.1.15,2013-03-10 05:02:00,
2013-03-09 23:04:00,29.8,26.4,30.03,NW,311,21.0,25.0,87,0.00,,,0.00,Wunderground v.1.15,2013-03-10 05:04:00,
2013-03-09 23:09:00,29.7,26.3,30.03,NW,314,20.0,25.0,87,0.00,,,0.00,Wunderground v.1.15,2013-03-10 05:09:00,
2013-03-09 23:15:00,29.8,26.4,30.02,NW,315,21.0,27.0,87,0.00,,,0.00,Wunderground v.1.15,2013-03-10 05:15:00,
2013-03-09 23:20:00,29.8,26.4,30.02,NW,319,23.0,23.0,87,0.00,,,0.00,Wunderground v.1.15,2013-03-10 05:20:00,
2013-03-09 23:26:00,29.8,26.4,30.02,NNW,329,23.0,27.0,87,0.00,,,0.00,Wunderground v.1.15,2013-03-10 05:26:00,
2013-03-09 23:31:00,29.9,26.5,30.02,NW,312,23.0,23.0,87,0.00,,,0.00,Wunderground v.1.15,2013-03-10 05:31:00,
2013-03-09 23:37:00,29.9,26.5,30.02,NW,313,21.0,26.0,87,0.00,,,0.00,Wunderground v.1.15,2013-03-10 05:37:00,
2013-03-09 23:42:00,30.0,26.9,30.02,NW,321,22.0,24.0,88,0.00,,,0.00,Wunderground v.1.15,2013-03-10 05:42:00,
2013-03-09 23:48:00,29.9,26.8,30.02,NW,316,22.0,25.0,88,0.00,,,0.00,Wunderground v.1.15,2013-03-10 05:48:00,
2013-03-09 23:53:00,30.1,27.0,30.02,NW,313,21.0,29.0,88,0.00,,,0.00,Wunderground v.1.15,2013-03-10 05:53:00,
2013-03-09 23:59:00,30.1,27.0,30.02,NW,323,21.0,29.0,88,0.00,,,0.00,Wunderground v.1.15,2013-03-10 05:59:00,